Time;durP1;ratioP1;P1;durP2;ratioP2;P2;SDS_P1;SDS_P2;PMS_P1;PMS_P2;Temp;Humidity;BMP_temperature;BMP_pressure;BME280_temperature;BME280_humidity;BME280_pressure;Samples;Min_cycle;Max_cycle;Signal;HPM_P1;HPM_P2
2023/04/05 00:00:07;;;;;;;6.43;3.93;;;1.80;99.90;;;;;;4139109;28;20483;-71
2023/04/05 00:02:12;;;;;;;8.77;3.93;;;1.80;99.90;;;;;;4141062;28;20516;-70
2023/04/05 00:04:19;;;;;;;7.13;4.00;;;1.80;99.90;;;;;;4138823;28;20950;-71
2023/04/05 00:06:25;;;;;;;5.93;3.37;;;1.80;99.90;;;;;;4138061;28;20506;-71
2023/04/05 00:08:28;;;;;;;7.53;4.03;;;1.80;99.90;;;;;;4138506;28;20493;-71
2023/04/05 00:10:31;;;;;;;8.43;3.97;;;1.80;99.90;;;;;;4136323;28;20499;-70
2023/04/05 00:12:33;;;;;;;6.93;3.40;;;1.80;99.90;;;;;;4137464;28;20451;-70
2023/04/05 00:14:35;;;;;;;8.67;3.67;;;1.80;99.90;;;;;;4135673;28;20458;-70
2023/04/05 00:16:38;;;;;;;7.63;3.80;;;1.80;99.90;;;;;;4136816;28;20455;-70
2023/04/05 00:18:48;;;;;;;6.97;3.50;;;1.80;99.90;;;;;;4135432;28;20448;-71
2023/04/05 00:20:51;;;;;;;7.20;3.37;;;1.80;99.90;;;;;;4134744;28;20493;-71
2023/04/05 00:22:52;;;;;;;7.33;3.67;;;1.90;99.90;;;;;;4137641;28;20555;-70
2023/04/05 00:24:54;;;;;;;6.00;2.97;;;1.90;99.90;;;;;;4136653;28;20477;-70
2023/04/05 00:26:57;;;;;;;8.40;3.77;;;1.90;99.90;;;;;;4127102;28;20550;-71
2023/04/05 00:28:59;;;;;;;7.80;3.67;;;1.90;99.90;;;;;;4138423;28;20447;-71
2023/04/05 00:31:01;;;;;;;7.80;3.53;;;1.90;99.90;;;;;;4136540;28;21022;-71
2023/04/05 00:33:03;;;;;;;11.10;3.60;;;1.90;99.90;;;;;;4130802;28;20876;-70
2023/04/05 00:35:07;;;;;;;7.63;3.43;;;1.90;99.90;;;;;;4135313;28;20478;-71
2023/04/05 00:37:09;;;;;;;6.43;3.33;;;1.90;99.90;;;;;;4135034;28;20462;-71
2023/04/05 00:39:11;;;;;;;5.93;3.33;;;1.80;99.90;;;;;;4137259;28;20472;-71
2023/04/05 00:41:13;;;;;;;6.87;3.63;;;1.80;99.90;;;;;;4134263;28;20530;-72
2023/04/05 00:43:15;;;;;;;5.67;3.00;;;1.80;99.90;;;;;;4136357;28;20565;-71
2023/04/05 00:45:17;;;;;;;6.90;2.97;;;1.80;99.90;;;;;;4135182;28;21220;-71
2023/04/05 00:47:20;;;;;;;8.03;3.57;;;1.80;99.90;;;;;;4136199;28;21052;-71
2023/04/05 00:49:22;;;;;;;6.80;3.17;;;1.90;99.90;;;;;;4138426;28;20571;-70
2023/04/05 00:51:26;;;;;;;6.83;3.40;;;1.90;99.90;;;;;;4135708;28;20462;-72
2023/04/05 00:53:28;;;;;;;6.23;3.03;;;1.90;99.90;;;;;;4137759;28;20502;-72
2023/04/05 00:55:32;;;;;;;6.10;3.60;;;1.90;99.90;;;;;;4135745;28;20845;-72
2023/04/05 00:57:37;;;;;;;6.73;3.43;;;1.90;99.90;;;;;;4136649;28;20493;-72
2023/04/05 00:59:39;;;;;;;8.03;3.53;;;1.90;99.90;;;;;;4138397;28;20505;-71
2023/04/05 01:01:41;;;;;;;8.23;3.03;;;1.90;99.90;;;;;;4134624;28;20494;-72
2023/04/05 01:03:52;;;;;;;6.23;3.53;;;1.90;99.90;;;;;;4140678;28;20597;-72
2023/04/05 01:06:02;;;;;;;6.43;3.17;;;1.90;99.90;;;;;;4138252;28;20589;-71
2023/04/05 01:08:12;;;;;;;9.83;4.03;;;1.90;99.90;;;;;;4141639;28;20548;-72
2023/04/05 01:10:16;;;;;;;7.13;3.50;;;1.90;99.90;;;;;;4138413;28;20881;-72
2023/04/05 01:12:20;;;;;;;8.63;3.63;;;1.90;99.90;;;;;;4138201;28;21433;-72
2023/04/05 01:14:22;;;;;;;5.57;3.40;;;1.90;99.90;;;;;;4138815;28;20962;-71
2023/04/05 01:16:25;;;;;;;8.00;3.90;;;1.90;99.90;;;;;;4137738;28;20565;-71
2023/04/05 01:18:29;;;;;;;4.90;3.50;;;1.90;99.90;;;;;;4134058;28;20470;-71
2023/04/05 01:20:37;;;;;;;7.43;3.40;;;2.00;99.90;;;;;;4133266;28;20518;-72
2023/04/05 01:23:17;;;;;;;6.20;3.70;;;2.00;99.90;;;;;;4139213;28;20939;-71
2023/04/05 01:25:58;;;;;;;8.80;3.60;;;2.00;99.90;;;;;;4138353;28;20482;-71
2023/04/05 01:28:27;;;;;;;7.50;3.53;;;2.00;99.90;;;;;;4130593;28;21040;-72
2023/04/05 01:30:34;;;;;;;7.77;4.20;;;2.00;99.90;;;;;;4139886;28;20474;-73
2023/04/05 01:32:46;;;;;;;6.87;4.17;;;2.00;99.90;;;;;;4142257;28;21028;-72
2023/04/05 01:34:52;;;;;;;8.47;4.03;;;2.00;99.90;;;;;;4138258;28;20551;-71
2023/04/05 01:36:56;;;;;;;7.20;3.70;;;2.00;99.90;;;;;;4136924;28;21024;-72
2023/04/05 01:39:01;;;;;;;8.17;3.60;;;2.00;99.90;;;;;;4134724;28;20518;-71
2023/04/05 01:41:03;;;;;;;7.87;3.70;;;2.00;99.90;;;;;;4136404;28;21156;-71
2023/04/05 01:43:13;;;;;;;6.63;3.63;;;1.90;99.90;;;;;;4139215;28;20462;-71
2023/04/05 01:45:15;;;;;;;5.97;3.57;;;1.90;99.90;;;;;;4140410;28;20581;-72
2023/04/05 01:47:19;;;;;;;6.73;3.37;;;1.90;99.90;;;;;;4137441;28;21133;-72
2023/04/05 01:49:21;;;;;;;7.20;3.57;;;1.90;99.90;;;;;;4137769;28;20547;-72
2023/04/05 01:51:23;;;;;;;8.67;4.20;;;1.90;99.90;;;;;;4136726;28;20480;-72
2023/04/05 01:53:25;;;;;;;8.13;4.07;;;1.90;99.90;;;;;;4138916;28;20495;-72
2023/04/05 01:55:27;;;;;;;7.57;3.80;;;1.90;99.90;;;;;;4132155;28;20492;-72
2023/04/05 01:57:29;;;;;;;8.60;4.47;;;1.90;99.90;;;;;;4138179;28;20469;-72
2023/04/05 01:59:31;;;;;;;9.40;3.93;;;1.90;99.90;;;;;;4136904;28;20892;-72
2023/04/05 02:01:33;;;;;;;8.10;3.93;;;1.90;99.90;;;;;;4127260;28;20483;-71
2023/04/05 02:03:36;;;;;;;8.20;4.00;;;1.90;99.90;;;;;;4136058;28;20462;-71
2023/04/05 02:05:38;;;;;;;6.40;3.67;;;2.00;99.90;;;;;;4131114;28;21005;-71
2023/04/05 02:07:40;;;;;;;7.07;3.60;;;1.90;99.90;;;;;;4129941;28;20808;-72
2023/04/05 02:09:42;;;;;;;7.47;3.90;;;1.90;99.90;;;;;;4137810;28;20546;-71
2023/04/05 02:11:44;;;;;;;5.73;3.40;;;1.90;99.90;;;;;;4139530;28;20458;-71
2023/04/05 02:13:46;;;;;;;7.13;4.13;;;1.90;99.90;;;;;;4139524;28;20482;-72
2023/04/05 02:15:49;;;;;;;9.10;4.10;;;1.90;99.90;;;;;;4138735;28;20571;-72
2023/04/05 02:17:52;;;;;;;7.33;3.70;;;1.90;99.90;;;;;;4136916;28;20577;-71
2023/04/05 02:20:01;;;;;;;7.83;4.10;;;1.90;99.90;;;;;;4134243;28;20608;-71
2023/04/05 02:22:03;;;;;;;7.47;4.07;;;1.90;99.90;;;;;;4139053;28;20461;-71
2023/04/05 02:24:05;;;;;;;6.47;3.90;;;1.80;99.90;;;;;;4139746;28;20447;-72
2023/04/05 02:26:07;;;;;;;7.43;4.00;;;1.80;99.90;;;;;;4136545;28;20484;-72
2023/04/05 02:28:09;;;;;;;8.63;4.33;;;1.80;99.90;;;;;;4138540;28;20467;-72
2023/04/05 02:30:12;;;;;;;9.13;4.30;;;1.80;99.90;;;;;;4140644;28;20513;-71
2023/04/05 02:32:14;;;;;;;6.07;3.80;;;1.80;99.90;;;;;;4139292;28;20457;-73
2023/04/05 02:34:16;;;;;;;6.80;3.57;;;1.80;99.90;;;;;;4137804;28;20463;-72
2023/04/05 02:36:21;;;;;;;6.17;4.03;;;1.80;99.90;;;;;;4137191;28;20575;-72
2023/04/05 02:38:22;;;;;;;6.80;4.27;;;1.80;99.90;;;;;;4136570;28;20462;-71
2023/04/05 02:40:24;;;;;;;7.00;4.00;;;1.80;99.90;;;;;;4136339;28;20975;-71
2023/04/05 02:42:26;;;;;;;7.33;4.70;;;1.80;99.90;;;;;;4137911;28;20510;-72
2023/04/05 02:44:29;;;;;;;8.37;3.93;;;1.80;99.90;;;;;;4139284;28;20458;-70
2023/04/05 02:46:31;;;;;;;6.97;3.70;;;1.70;99.90;;;;;;4139311;28;21169;-70
2023/04/05 02:48:33;;;;;;;5.80;3.40;;;1.80;99.90;;;;;;4139857;28;20483;-72
2023/04/05 02:50:35;;;;;;;7.70;3.57;;;1.70;99.90;;;;;;4138570;28;20444;-72
2023/04/05 02:52:38;;;;;;;7.73;3.97;;;1.70;99.90;;;;;;4118562;28;20480;-71
2023/04/05 02:54:40;;;;;;;11.00;4.00;;;1.70;99.90;;;;;;4119316;28;20516;-71
2023/04/05 02:56:42;;;;;;;6.20;3.73;;;1.80;99.90;;;;;;4135830;28;20478;-71
2023/04/05 02:58:44;;;;;;;6.53;3.57;;;1.70;99.90;;;;;;4137734;28;20593;-72
2023/04/05 03:00:50;;;;;;;6.03;4.00;;;1.70;99.90;;;;;;4137904;28;20492;-72
2023/04/05 03:02:52;;;;;;;8.27;4.40;;;1.70;99.90;;;;;;4122176;28;20457;-70
2023/04/05 03:04:53;;;;;;;10.90;4.70;;;1.70;99.90;;;;;;4138991;28;21154;-71
2023/04/05 03:06:56;;;;;;;12.80;4.20;;;1.80;99.90;;;;;;4140805;28;20941;-72
2023/04/05 03:09:00;;;;;;;7.83;4.87;;;1.70;99.90;;;;;;4137464;28;20460;-71
2023/04/05 03:11:02;;;;;;;8.60;4.80;;;1.60;99.90;;;;;;4139895;28;20431;-71
2023/04/05 03:13:04;;;;;;;7.83;4.43;;;1.60;99.90;;;;;;4141317;28;20466;-71
2023/04/05 03:15:08;;;;;;;12.77;4.50;;;1.60;99.90;;;;;;4134420;28;21028;-71
2023/04/05 03:17:09;;;;;;;8.67;4.70;;;1.60;99.90;;;;;;4137062;28;20497;-70
2023/04/05 03:19:11;;;;;;;6.83;4.20;;;1.90;99.90;;;;;;4135382;28;20501;-70
2023/04/05 03:21:16;;;;;;;7.93;4.30;;;1.60;99.90;;;;;;4138167;28;21367;-71
2023/04/05 03:23:18;;;;;;;7.03;4.10;;;1.60;99.90;;;;;;4135056;28;20455;-71
2023/04/05 03:25:22;;;;;;;8.90;4.97;;;1.50;99.90;;;;;;4137308;28;20886;-70
2023/04/05 03:27:25;;;;;;;9.10;4.57;;;1.50;99.90;;;;;;4137388;28;20908;-71
2023/04/05 03:29:26;;;;;;;8.93;4.43;;;1.50;99.90;;;;;;4137957;28;20483;-71
2023/04/05 03:31:29;;;;;;;7.57;4.30;;;1.50;99.90;;;;;;4119726;28;21105;-71
2023/04/05 03:33:31;;;;;;;7.17;4.63;;;1.50;99.90;;;;;;4139577;28;20454;-71
2023/04/05 03:35:33;;;;;;;12.80;4.70;;;1.50;99.90;;;;;;4137273;28;20477;-70
2023/04/05 03:37:35;;;;;;;9.37;4.80;;;1.50;99.90;;;;;;4137921;28;20975;-71
2023/04/05 03:39:37;;;;;;;9.10;4.50;;;1.50;99.90;;;;;;4136677;28;21433;-71
2023/04/05 03:41:40;;;;;;;6.77;4.13;;;1.50;99.90;;;;;;4138363;28;20538;-72
2023/04/05 03:43:42;;;;;;;9.40;4.30;;;1.40;99.90;;;;;;4118401;28;20542;-72
2023/04/05 03:45:44;;;;;;;7.90;4.37;;;1.50;99.90;;;;;;4132988;28;20517;-71
2023/04/05 03:47:46;;;;;;;7.57;4.40;;;1.60;99.90;;;;;;4137600;28;20505;-71
2023/04/05 03:49:48;;;;;;;8.30;4.00;;;1.40;99.90;;;;;;4135772;28;20977;-71
2023/04/05 03:51:50;;;;;;;7.90;4.50;;;1.40;99.90;;;;;;4135889;28;20454;-71
2023/04/05 03:53:52;;;;;;;12.13;5.17;;;1.40;99.90;;;;;;4136646;28;20484;-72
2023/04/05 03:55:54;;;;;;;7.30;4.40;;;1.50;99.90;;;;;;4138023;28;20839;-71
2023/04/05 03:57:57;;;;;;;7.33;4.50;;;1.50;99.90;;;;;;4131230;28;20998;-71
2023/04/05 03:59:59;;;;;;;8.33;4.33;;;1.60;99.90;;;;;;4136633;28;20967;-71
2023/04/05 04:02:01;;;;;;;7.23;4.43;;;1.50;99.90;;;;;;4135636;28;21092;-71
2023/04/05 04:04:04;;;;;;;10.03;4.67;;;1.50;99.90;;;;;;4135173;28;20570;-71
2023/04/05 04:06:07;;;;;;;8.07;4.23;;;1.50;99.90;;;;;;4137723;28;20500;-71
2023/04/05 04:08:09;;;;;;;9.60;4.33;;;1.50;99.90;;;;;;4133671;28;21028;-71
2023/04/05 04:10:12;;;;;;;10.27;4.57;;;1.50;99.90;;;;;;4135311;28;20541;-71
2023/04/05 04:12:14;;;;;;;9.17;4.53;;;1.50;99.90;;;;;;4134944;28;21033;-70
2023/04/05 04:14:18;;;;;;;7.13;4.70;;;1.50;99.90;;;;;;4140936;28;20450;-71
2023/04/05 04:16:19;;;;;;;10.90;4.67;;;1.50;99.90;;;;;;4137040;28;20478;-70
2023/04/05 04:18:21;;;;;;;8.27;4.93;;;1.50;99.90;;;;;;4138546;28;20970;-70
2023/04/05 04:20:23;;;;;;;9.10;5.00;;;1.50;99.90;;;;;;4136144;28;20583;-70
2023/04/05 04:22:32;;;;;;;7.97;4.70;;;1.50;99.90;;;;;;4127533;28;20553;-70
2023/04/05 04:24:34;;;;;;;9.07;4.97;;;1.50;99.90;;;;;;4135093;28;20441;-71
2023/04/05 04:26:36;;;;;;;9.70;5.50;;;1.50;99.90;;;;;;4132406;28;20519;-70
2023/04/05 04:28:42;;;;;;;10.13;4.90;;;1.50;99.90;;;;;;4133412;28;20517;-70
2023/04/05 04:30:45;;;;;;;11.40;4.83;;;1.50;99.90;;;;;;4135550;28;20472;-71
2023/04/05 04:32:52;;;;;;;8.87;4.33;;;1.50;99.90;;;;;;4127846;28;20496;-71
2023/04/05 04:34:54;;;;;;;10.03;5.50;;;1.50;99.90;;;;;;4134191;28;20454;-70
2023/04/05 04:37:00;;;;;;;9.60;5.10;;;1.50;99.90;;;;;;4128672;28;20473;-71
2023/04/05 04:39:04;;;;;;;7.47;5.17;;;1.40;99.90;;;;;;4118796;28;20460;-71
2023/04/05 04:41:07;;;;;;;9.87;4.73;;;1.40;99.90;;;;;;4134017;28;20994;-71
2023/04/05 04:43:13;;;;;;;10.20;5.10;;;1.40;99.90;;;;;;4137388;28;20481;-71
2023/04/05 04:45:16;;;;;;;7.53;4.80;;;1.40;99.90;;;;;;4133816;28;20485;-70
2023/04/05 04:47:20;;;;;;;6.93;4.47;;;1.40;99.90;;;;;;4134934;28;20463;-71
2023/04/05 04:49:22;;;;;;;9.10;4.97;;;1.40;99.90;;;;;;4132743;28;20536;-70
2023/04/05 04:51:24;;;;;;;7.43;4.40;;;1.40;99.90;;;;;;4135881;28;20451;-71
2023/04/05 04:53:26;;;;;;;8.83;5.13;;;1.40;99.90;;;;;;4134161;28;20544;-70
2023/04/05 04:55:29;;;;;;;7.47;4.40;;;1.40;99.90;;;;;;4136448;28;20525;-71
2023/04/05 04:57:31;;;;;;;9.47;4.90;;;1.40;99.90;;;;;;4137858;28;20485;-70
2023/04/05 04:59:33;;;;;;;10.07;4.53;;;1.30;99.90;;;;;;4137790;28;20470;-70
2023/04/05 05:01:39;;;;;;;9.73;4.77;;;1.40;99.90;;;;;;4137367;28;20584;-71
2023/04/05 05:03:42;;;;;;;10.93;4.77;;;1.40;99.90;;;;;;4148514;28;20456;-70
2023/04/05 05:05:45;;;;;;;9.40;4.60;;;1.30;99.90;;;;;;4132974;28;20513;-70
2023/04/05 05:07:47;;;;;;;8.53;4.90;;;1.30;99.90;;;;;;4143812;28;20459;-71
2023/04/05 05:09:51;;;;;;;7.23;4.40;;;1.30;99.90;;;;;;4131475;28;21058;-70
2023/04/05 05:11:53;;;;;;;11.83;5.10;;;1.30;99.90;;;;;;4136224;28;20870;-69
2023/04/05 05:13:55;;;;;;;13.40;6.40;;;1.30;99.90;;;;;;4144689;28;20458;-69
2023/04/05 05:15:57;;;;;;;8.43;5.47;;;1.30;99.90;;;;;;4144667;28;20466;-69
2023/04/05 05:17:59;;;;;;;8.20;4.77;;;1.30;99.90;;;;;;4142852;28;20546;-69
2023/04/05 05:20:08;;;;;;;8.90;5.00;;;1.30;99.90;;;;;;4134055;28;20465;-69
2023/04/05 05:22:10;;;;;;;6.87;4.60;;;1.30;99.90;;;;;;4122636;28;20569;-69
2023/04/05 05:24:13;;;;;;;11.13;5.67;;;1.30;99.90;;;;;;4141910;28;21002;-70
2023/04/05 05:26:15;;;;;;;11.20;5.97;;;1.30;99.90;;;;;;4141548;28;20809;-70
2023/04/05 05:28:17;;;;;;;15.63;7.23;;;1.30;99.90;;;;;;4140326;28;20457;-69
2023/04/05 05:30:19;;;;;;;17.87;8.27;;;1.30;99.90;;;;;;4141900;28;20955;-69
2023/04/05 05:32:21;;;;;;;16.27;8.83;;;1.30;99.90;;;;;;4148766;28;20541;-70
2023/04/05 05:34:24;;;;;;;21.33;9.40;;;1.30;99.90;;;;;;4138504;28;20950;-69
2023/04/05 05:36:27;;;;;;;16.40;8.03;;;1.40;99.90;;;;;;4145811;28;20473;-69
2023/04/05 05:38:29;;;;;;;18.37;8.87;;;1.40;99.90;;;;;;4136529;28;20465;-70
2023/04/05 05:40:31;;;;;;;15.90;9.20;;;1.40;99.90;;;;;;4140279;28;21188;-70
2023/04/05 05:42:33;;;;;;;14.87;8.17;;;1.40;99.90;;;;;;4139766;28;20919;-69
2023/04/05 05:44:36;;;;;;;14.23;7.40;;;1.40;99.90;;;;;;4143599;28;20478;-70
2023/04/05 05:46:38;;;;;;;13.23;7.43;;;1.40;99.90;;;;;;4140478;28;20819;-68
2023/04/05 05:48:40;;;;;;;11.47;6.10;;;1.50;99.90;;;;;;4137992;28;20463;-70
2023/04/05 05:50:43;;;;;;;12.97;5.97;;;1.50;99.90;;;;;;4140230;28;21000;-69
2023/04/05 05:52:47;;;;;;;9.53;5.57;;;1.50;99.90;;;;;;4142327;28;21006;-70
2023/04/05 05:54:49;;;;;;;10.07;5.27;;;1.50;99.90;;;;;;4139526;28;20477;-71
2023/04/05 05:56:51;;;;;;;11.97;6.03;;;1.50;99.90;;;;;;4138593;28;20485;-71
2023/04/05 05:58:53;;;;;;;9.67;5.17;;;1.50;99.90;;;;;;4142449;28;20492;-70
2023/04/05 06:00:56;;;;;;;8.17;5.03;;;1.50;99.90;;;;;;4138700;28;20481;-70
2023/04/05 06:02:58;;;;;;;8.50;5.10;;;1.60;99.90;;;;;;4134323;28;20526;-69
2023/04/05 06:05:01;;;;;;;12.63;5.40;;;1.60;99.90;;;;;;4135228;28;20480;-70
2023/04/05 06:07:03;;;;;;;10.23;5.10;;;1.60;99.90;;;;;;4123559;28;20458;-70
2023/04/05 06:09:06;;;;;;;11.87;5.30;;;1.60;99.90;;;;;;4138142;28;20455;-70
2023/04/05 06:11:16;;;;;;;11.47;5.33;;;1.60;99.90;;;;;;4141664;28;20447;-70
2023/04/05 06:13:18;;;;;;;8.33;4.80;;;1.60;99.90;;;;;;4141658;28;20459;-70
2023/04/05 06:15:20;;;;;;;10.90;5.23;;;1.60;99.90;;;;;;4142316;28;20538;-70
2023/04/05 06:17:22;;;;;;;8.83;4.77;;;1.70;99.90;;;;;;4148649;28;20513;-70
2023/04/05 06:19:24;;;;;;;7.10;5.00;;;1.70;99.90;;;;;;4137679;28;20954;-70
2023/04/05 06:21:26;;;;;;;9.63;5.10;;;1.80;99.90;;;;;;4137242;28;20454;-70
2023/04/05 06:23:28;;;;;;;7.37;4.50;;;1.70;99.90;;;;;;4138605;28;20491;-70
2023/04/05 06:25:31;;;;;;;8.90;4.80;;;1.70;99.90;;;;;;4137723;28;20479;-69
2023/04/05 06:27:33;;;;;;;7.80;5.00;;;1.80;99.90;;;;;;4138311;28;20481;-70
2023/04/05 06:29:35;;;;;;;9.50;5.03;;;1.80;99.90;;;;;;4141632;28;20477;-69
2023/04/05 06:31:37;;;;;;;8.50;4.80;;;1.80;99.90;;;;;;4143777;28;20545;-69
2023/04/05 06:33:39;;;;;;;9.13;5.13;;;1.90;99.90;;;;;;4141201;28;20554;-69
2023/04/05 06:35:41;;;;;;;9.53;4.80;;;1.90;99.90;;;;;;4142541;28;21110;-70
2023/04/05 06:37:43;;;;;;;8.57;4.93;;;1.90;99.90;;;;;;4140336;28;21011;-70
2023/04/05 06:39:45;;;;;;;6.83;4.50;;;2.00;99.90;;;;;;4142845;28;20600;-70
2023/04/05 06:41:48;;;;;;;8.27;5.03;;;2.00;99.90;;;;;;4140216;28;20447;-71
2023/04/05 06:43:50;;;;;;;6.90;4.23;;;2.00;99.90;;;;;;4134503;28;20854;-72
2023/04/05 06:45:55;;;;;;;7.73;4.50;;;2.00;99.90;;;;;;4147034;28;20474;-70
2023/04/05 06:47:57;;;;;;;10.13;4.97;;;2.00;99.90;;;;;;4139068;28;20483;-70
2023/04/05 06:49:59;;;;;;;6.47;4.10;;;2.00;99.90;;;;;;4143151;28;21065;-70
2023/04/05 06:52:01;;;;;;;7.67;4.13;;;2.10;99.90;;;;;;4146826;28;20447;-70
2023/04/05 06:54:04;;;;;;;7.80;4.60;;;2.10;99.90;;;;;;4125812;28;20487;-70
2023/04/05 06:56:06;;;;;;;5.60;3.73;;;2.10;99.90;;;;;;4148723;28;20475;-70
2023/04/05 06:58:09;;;;;;;11.67;4.80;;;2.20;99.90;;;;;;4150408;28;20466;-70
2023/04/05 07:00:14;;;;;;;8.90;4.67;;;2.20;99.90;;;;;;4151078;28;20467;-70
2023/04/05 07:02:16;;;;;;;5.57;3.67;;;2.20;99.90;;;;;;4145118;28;20479;-70
2023/04/05 07:04:18;;;;;;;27.63;6.77;;;2.30;99.90;;;;;;4143363;28;20495;-70
2023/04/05 07:06:22;;;;;;;13.83;4.67;;;2.30;99.90;;;;;;4140836;28;20517;-71
2023/04/05 07:08:24;;;;;;;19.67;7.10;;;2.40;99.90;;;;;;4129415;28;20451;-69
2023/04/05 07:10:26;;;;;;;26.53;7.90;;;2.50;99.90;;;;;;4142927;28;20450;-69
2023/04/05 07:12:28;;;;;;;18.43;6.90;;;2.50;99.90;;;;;;4143085;28;20444;-71
2023/04/05 07:14:31;;;;;;;14.40;5.63;;;2.50;99.90;;;;;;4138964;28;20459;-70
2023/04/05 07:16:34;;;;;;;10.97;4.93;;;2.60;99.90;;;;;;4138228;28;20902;-70
2023/04/05 07:18:36;;;;;;;9.90;4.67;;;2.60;99.90;;;;;;4120660;28;20469;-71
2023/04/05 07:20:38;;;;;;;10.23;4.63;;;2.70;99.90;;;;;;4135878;28;20466;-71
2023/04/05 07:22:40;;;;;;;7.63;4.37;;;2.70;99.90;;;;;;4133781;28;20506;-72
2023/04/05 07:24:42;;;;;;;11.93;4.30;;;2.70;99.90;;;;;;4135817;28;20458;-71
2023/04/05 07:26:44;;;;;;;8.00;4.07;;;2.80;99.90;;;;;;4137954;28;20493;-71
2023/04/05 07:28:46;;;;;;;9.70;4.27;;;2.80;99.90;;;;;;4134797;28;20547;-71
2023/04/05 07:30:49;;;;;;;12.90;4.90;;;2.80;99.90;;;;;;4137065;28;20454;-71
2023/04/05 07:32:51;;;;;;;7.90;3.83;;;2.90;99.90;;;;;;4135942;28;20464;-71
2023/04/05 07:34:53;;;;;;;8.70;4.20;;;2.90;99.90;;;;;;4122264;28;20502;-71
2023/04/05 07:36:55;;;;;;;9.77;4.67;;;2.90;99.90;;;;;;4138585;28;20455;-71
2023/04/05 07:38:58;;;;;;;8.80;4.57;;;2.90;99.90;;;;;;4137758;28;20995;-71
2023/04/05 07:40:59;;;;;;;7.40;3.83;;;3.00;99.90;;;;;;4135783;28;20452;-71
2023/04/05 07:43:01;;;;;;;7.70;4.13;;;3.00;99.90;;;;;;4136307;28;20575;-72
2023/04/05 07:45:04;;;;;;;8.27;4.33;;;3.00;99.90;;;;;;4135752;28;20517;-71
2023/04/05 07:47:07;;;;;;;17.47;4.53;;;3.00;99.90;;;;;;4135073;28;20547;-72
2023/04/05 07:49:09;;;;;;;9.93;4.60;;;3.10;99.90;;;;;;4135715;28;20992;-71
2023/04/05 07:51:11;;;;;;;8.13;3.80;;;3.10;99.90;;;;;;4119934;28;20491;-71
2023/04/05 07:53:13;;;;;;;7.00;3.80;;;3.10;99.90;;;;;;4137110;28;20461;-72
2023/04/05 07:55:16;;;;;;;6.23;4.00;;;3.20;99.90;;;;;;4135550;28;20488;-71
2023/04/05 07:57:18;;;;;;;8.33;3.73;;;3.20;99.90;;;;;;4134619;28;20463;-71
2023/04/05 07:59:20;;;;;;;8.53;4.07;;;3.30;99.90;;;;;;4134200;28;20483;-71
2023/04/05 08:01:26;;;;;;;12.90;4.47;;;3.40;99.90;;;;;;4136061;28;20443;-71
2023/04/05 08:03:33;;;;;;;10.00;4.10;;;3.30;99.90;;;;;;4124227;28;20490;-70
2023/04/05 08:05:35;;;;;;;6.87;3.03;;;3.30;99.90;;;;;;4143002;28;20540;-70
2023/04/05 08:07:37;;;;;;;8.17;3.90;;;3.30;99.90;;;;;;4137129;28;20475;-71
2023/04/05 08:09:39;;;;;;;8.43;3.47;;;3.40;99.90;;;;;;4140136;28;20457;-71
2023/04/05 08:11:42;;;;;;;8.50;3.70;;;3.40;99.90;;;;;;4135081;28;20452;-70
2023/04/05 08:13:44;;;;;;;11.07;3.77;;;3.50;99.90;;;;;;4136778;28;20436;-70
2023/04/05 08:15:46;;;;;;;6.87;3.17;;;3.50;99.90;;;;;;4138758;28;21003;-71
2023/04/05 08:17:48;;;;;;;11.40;3.80;;;3.60;99.90;;;;;;4135655;28;20534;-70
2023/04/05 08:19:52;;;;;;;7.43;3.13;;;3.60;99.90;;;;;;4135315;28;20468;-70
2023/04/05 08:21:54;;;;;;;9.63;3.40;;;3.70;99.90;;;;;;4145380;28;20455;-71
2023/04/05 08:23:57;;;;;;;8.83;3.30;;;3.70;99.90;;;;;;4143606;28;20878;-71
2023/04/05 08:25:59;;;;;;;8.13;3.13;;;3.80;99.90;;;;;;4125366;28;20498;-69
2023/04/05 08:28:01;;;;;;;4.57;2.53;;;3.80;99.90;;;;;;4140357;28;20574;-70
2023/04/05 08:30:03;;;;;;;8.83;3.20;;;3.80;99.90;;;;;;4139268;28;20832;-70
2023/04/05 08:32:07;;;;;;;7.07;2.80;;;3.90;99.90;;;;;;4141343;28;20443;-70
2023/04/05 08:34:09;;;;;;;5.93;2.77;;;3.90;99.90;;;;;;4139724;28;20435;-70
2023/04/05 08:36:13;;;;;;;7.47;2.83;;;3.90;99.90;;;;;;4142497;28;20985;-70
2023/04/05 08:38:15;;;;;;;4.33;2.63;;;4.00;99.90;;;;;;4140373;28;20443;-70
2023/04/05 08:40:17;;;;;;;5.03;2.83;;;4.00;99.90;;;;;;4135471;28;20459;-70
2023/04/05 08:42:23;;;;;;;4.10;2.53;;;4.20;99.90;;;;;;4145565;28;20546;-70
2023/04/05 08:44:29;;;;;;;5.37;2.70;;;4.20;99.90;;;;;;4139951;28;20517;-70
2023/04/05 08:46:31;;;;;;;8.13;2.57;;;4.20;99.90;;;;;;4123727;28;20487;-70
2023/04/05 08:48:35;;;;;;;9.27;3.10;;;4.30;99.90;;;;;;4144099;28;20983;-70
2023/04/05 08:50:37;;;;;;;7.47;2.97;;;4.30;99.90;;;;;;4142199;28;21035;-70
2023/04/05 08:52:45;;;;;;;6.47;2.73;;;4.40;99.90;;;;;;4137859;28;20547;-71
2023/04/05 08:54:46;;;;;;;4.30;2.50;;;4.40;99.90;;;;;;4129023;28;20466;-70
2023/04/05 08:56:50;;;;;;;4.07;2.17;;;4.40;99.90;;;;;;4147692;28;20459;-70
2023/04/05 08:59:00;;;;;;;3.23;1.77;;;4.50;99.90;;;;;;4139478;28;20819;-69
2023/04/05 09:01:04;;;;;;;5.30;2.10;;;4.60;99.90;;;;;;4122212;28;20460;-71
2023/04/05 09:03:08;;;;;;;6.13;2.00;;;4.70;99.90;;;;;;4138968;28;20836;-70
2023/04/05 09:05:11;;;;;;;3.63;1.77;;;4.70;99.90;;;;;;4133460;28;20486;-70
2023/04/05 09:07:14;;;;;;;6.17;1.90;;;4.80;99.90;;;;;;4143603;28;20511;-70
2023/04/05 09:09:20;;;;;;;3.07;1.60;;;4.90;99.90;;;;;;4139414;28;20448;-69
2023/04/05 09:11:23;;;;;;;2.07;1.60;;;5.00;99.90;;;;;;4126355;28;21031;-70
2023/04/05 09:13:25;;;;;;;4.60;1.67;;;5.10;99.90;;;;;;4141902;28;20989;-71
2023/04/05 09:15:27;;;;;;;3.60;2.17;;;5.20;99.90;;;;;;4138226;28;20478;-71
2023/04/05 09:17:31;;;;;;;4.63;1.97;;;5.20;99.90;;;;;;4139387;28;20448;-71
2023/04/05 09:19:33;;;;;;;4.20;1.67;;;5.30;99.90;;;;;;4137096;28;21086;-70
2023/04/05 09:21:59;;;;;;;6.37;2.27;;;5.30;99.90;;;;;;4134033;28;20997;-70
2023/04/05 09:24:01;;;;;;;2.83;1.30;;;5.40;99.90;;;;;;4120370;28;20970;-69
2023/04/05 09:26:18;;;;;;;2.63;1.33;;;5.40;99.90;;;;;;4141052;28;20527;-70
2023/04/05 09:28:20;;;;;;;3.63;1.27;;;5.40;99.90;;;;;;4123323;28;20458;-71
2023/04/05 09:30:22;;;;;;;5.57;1.70;;;5.40;99.90;;;;;;4140807;28;20476;-70
2023/04/05 09:32:28;;;;;;;4.33;1.80;;;5.40;99.90;;;;;;4142542;28;20459;-70
2023/04/05 09:34:31;;;;;;;3.93;1.30;;;5.40;99.90;;;;;;4141956;28;20458;-70
2023/04/05 09:36:34;;;;;;;3.10;1.57;;;5.50;99.90;;;;;;4139255;28;20975;-70
2023/04/05 09:38:44;;;;;;;4.23;1.60;;;5.50;99.90;;;;;;4137430;28;20551;-70
2023/04/05 09:40:47;;;;;;;3.57;1.43;;;5.50;99.90;;;;;;4136230;28;20448;-69
2023/04/05 09:42:52;;;;;;;4.20;1.40;;;5.50;99.90;;;;;;4141311;28;20456;-69
2023/04/05 09:44:56;;;;;;;5.10;1.50;;;5.60;99.90;;;;;;4141199;28;20514;-70
2023/04/05 09:46:58;;;;;;;4.77;1.40;;;5.60;99.90;;;;;;4150532;28;20518;-70
2023/04/05 09:49:00;;;;;;;3.37;1.60;;;5.70;99.90;;;;;;4139938;28;20488;-69
2023/04/05 09:51:05;;;;;;;3.33;1.47;;;5.70;99.90;;;;;;4142905;28;20488;-71
2023/04/05 09:53:09;;;;;;;3.23;1.57;;;5.70;99.90;;;;;;4142873;28;20976;-69
2023/04/05 09:55:12;;;;;;;2.77;1.50;;;5.70;99.90;;;;;;4137940;28;20494;-69
2023/04/05 09:57:16;;;;;;;4.87;1.50;;;5.80;99.90;;;;;;4127814;28;20553;-69
2023/04/05 09:59:19;;;;;;;6.63;1.70;;;5.80;99.90;;;;;;4141710;28;20855;-69
2023/04/05 10:01:21;;;;;;;1.63;1.17;;;5.80;99.90;;;;;;4149004;28;20597;-70
2023/04/05 10:03:26;;;;;;;2.40;1.40;;;5.90;99.70;;;;;;4124494;28;20482;-69
2023/04/05 10:05:28;;;;;;;3.27;1.70;;;6.00;99.90;;;;;;4150640;28;20473;-71
2023/04/05 10:07:31;;;;;;;2.70;1.20;;;6.00;99.90;;;;;;4143706;28;20457;-71
2023/04/05 10:09:33;;;;;;;3.57;1.37;;;6.00;99.90;;;;;;4148410;28;20462;-70
2023/04/05 10:11:37;;;;;;;4.43;2.00;;;6.10;92.30;;;;;;4139331;28;20470;-71
2023/04/05 10:13:39;;;;;;;3.03;1.70;;;6.10;91.50;;;;;;4139939;28;20541;-70
2023/04/05 10:15:47;;;;;;;2.00;1.40;;;6.20;99.90;;;;;;4136597;28;20474;-70
2023/04/05 10:17:55;;;;;;;4.50;1.57;;;6.40;92.10;;;;;;4132001;28;21548;-69
2023/04/05 10:20:15;;;;;;;4.43;1.83;;;6.50;97.90;;;;;;4145262;28;20474;-70
2023/04/05 10:22:24;;;;;;;3.77;1.77;;;6.70;75.80;;;;;;4146323;28;20910;-70
2023/04/05 10:24:36;;;;;;;2.37;1.43;;;6.80;86.90;;;;;;4139796;28;20871;-70
2023/04/05 10:26:45;;;;;;;3.07;1.73;;;6.90;67.80;;;;;;4148803;28;20521;-70
2023/04/05 10:28:51;;;;;;;3.20;1.50;;;7.00;77.50;;;;;;4145816;28;20964;-72
2023/04/05 10:30:59;;;;;;;3.10;1.40;;;7.10;72.10;;;;;;4136726;28;20470;-69
2023/04/05 10:33:10;;;;;;;3.60;1.53;;;7.20;74.50;;;;;;4130715;28;20984;-69
2023/04/05 10:35:17;;;;;;;2.97;1.30;;;7.30;77.80;;;;;;4148533;28;20529;-69
2023/04/05 10:37:30;;;;;;;3.07;1.40;;;7.40;71.00;;;;;;4144768;28;20459;-69
2023/04/05 10:39:39;;;;;;;2.63;1.80;;;7.50;72.40;;;;;;4147112;28;20455;-69
2023/04/05 10:41:48;;;;;;;2.33;1.40;;;7.60;64.80;;;;;;4141037;28;20802;-69
2023/04/05 10:43:58;;;;;;;3.70;1.47;;;7.70;57.30;;;;;;4152087;28;20844;-69
2023/04/05 10:46:04;;;;;;;3.20;1.60;;;7.80;55.20;;;;;;4131039;28;21064;-69
2023/04/05 10:48:16;;;;;;;2.73;1.37;;;7.90;58.70;;;;;;4152753;28;20483;-70
2023/04/05 10:50:23;;;;;;;4.83;1.43;;;7.90;59.90;;;;;;4146010;28;20246;-70